Time;durP1;ratioP1;P1;durP2;ratioP2;P2;SDS_P1;SDS_P2;PMS_P1;PMS_P2;Temp;Humidity;BMP_temperature;BMP_pressure;BME280_temperature;BME280_humidity;BME280_pressure;Samples;Min_cycle;Max_cycle;Signal;HPM_P1;HPM_P2
2023/12/23 00:07:12;;;;;;;11.10;3.50;;;;;;;4.36;78.78;96971.64;663697;1266;140709;-72
2023/12/23 00:22:15;;;;;;;11.70;5.50;;;;;;;4.35;79.22;96990.59;665116;1266;140164;-69
2023/12/23 00:37:19;;;;;;;21.60;7.90;;;;;;;4.41;79.63;97014.05;667627;1262;138980;-66
2023/12/23 00:52:22;;;;;;;6.30;2.50;;;;;;;4.46;78.67;97019.20;666234;1267;140868;-69
2023/12/23 01:07:26;;;;;;;11.80;4.00;;;;;;;4.49;78.08;97037.70;662774;1279;139402;-72
2023/12/23 01:22:29;;;;;;;7.50;3.10;;;;;;;4.49;77.36;97043.04;662869;1266;140294;-66
2023/12/23 01:37:32;;;;;;;5.00;2.10;;;;;;;4.37;77.21;97060.89;664035;1261;139303;-68
2023/12/23 01:52:38;;;;;;;18.20;4.80;;;;;;;4.33;77.19;97075.49;664020;1262;138587;-66
2023/12/23 02:07:45;;;;;;;16.00;5.80;;;;;;;4.36;76.15;97099.09;664220;1257;140098;-65
2023/12/23 02:22:49;;;;;;;10.70;3.60;;;;;;;4.32;75.33;97109.40;663990;1260;254091;-64
2023/12/23 02:37:54;;;;;;;5.30;2.10;;;;;;;4.50;74.33;97125.52;665020;1261;139795;-70
2023/12/23 02:53:00;;;;;;;7.70;3.90;;;;;;;4.63;72.56;97139.94;665997;1273;140308;-67
2023/12/23 03:08:05;;;;;;;10.70;2.60;;;;;;;4.42;72.09;97159.85;665947;1261;139221;-70
2023/12/23 03:23:08;;;;;;;8.20;2.00;;;;;;;4.53;71.93;97194.40;664554;1261;139519;-69
2023/12/23 03:38:13;;;;;;;4.10;1.50;;;;;;;4.44;72.39;97223.41;664455;1263;138888;-70
2023/12/23 03:53:17;;;;;;;12.00;3.00;;;;;;;4.47;72.48;97245.93;664739;1263;138221;-66
2023/12/23 04:08:20;;;;;;;7.70;1.80;;;;;;;4.35;73.56;97258.16;664326;1262;140001;-68
2023/12/23 04:23:24;;;;;;;13.40;4.60;;;;;;;4.37;73.02;97266.77;664605;1264;138189;-66
2023/12/23 04:38:28;;;;;;;6.80;2.20;;;;;;;4.48;72.20;97279.58;664504;1258;140570;-66
2023/12/23 04:53:31;;;;;;;10.80;2.60;;;;;;;4.56;71.14;97301.88;663340;1273;138559;-70
2023/12/23 05:08:37;;;;;;;9.30;2.00;;;;;;;4.66;69.95;97332.79;664900;1263;140658;-68
2023/12/23 05:23:42;;;;;;;5.10;1.50;;;;;;;4.49;68.73;97364.30;661040;1261;138906;-67
2023/12/23 05:38:46;;;;;;;10.30;2.00;;;;;;;4.61;67.98;97381.14;664778;1263;139484;-68
2023/12/23 05:53:49;;;;;;;4.30;1.30;;;;;;;4.60;67.78;97412.56;666441;1261;140455;-69
2023/12/23 06:08:53;;;;;;;2.90;1.40;;;;;;;4.43;67.78;97433.86;669092;1261;138138;-64
2023/12/23 06:23:56;;;;;;;5.00;2.20;;;;;;;4.59;67.01;97464.78;660192;1263;139197;-68
2023/12/23 06:39:01;;;;;;;16.70;4.90;;;;;;;4.69;66.99;97480.38;665996;1264;139153;-70
2023/12/23 06:54:05;;;;;;;5.00;2.20;;;;;;;4.53;65.93;97500.80;666310;1261;140326;-66
2023/12/23 07:09:09;;;;;;;19.40;6.60;;;;;;;4.45;64.92;97513.16;665891;1262;138693;-67
2023/12/23 07:24:13;;;;;;;62.80;25.50;;;;;;;4.52;65.24;97514.52;664210;1257;138881;-65
2023/12/23 07:39:17;;;;;;;26.90;11.30;;;;;;;4.42;65.40;97531.69;664762;1263;138667;-71
2023/12/23 07:54:21;;;;;;;23.10;6.30;;;;;;;4.31;65.92;97551.85;664912;1260;139970;-71
2023/12/23 08:09:26;;;;;;;10.20;5.60;;;;;;;4.27;66.84;97558.36;664873;1274;139300;-71
2023/12/23 08:24:31;;;;;;;9.90;2.90;;;;;;;4.48;67.05;97565.86;665470;1262;139903;-66
2023/12/23 08:51:31;;;;;;;46.20;12.80;;;;;;;4.21;69.14;97566.14;652910;1292;544856;-86
2023/12/23 09:06:37;;;;;;;16.10;5.00;;;;;;;5.21;67.67;97579.90;661616;1275;138286;-87
2023/12/23 09:21:41;;;;;;;35.60;19.30;;;;;;;5.22;68.46;97582.53;663854;1266;138917;-85
2023/12/23 09:46:26;;;;;;;14.80;5.50;;;;;;;5.56;67.45;97609.71;641347;1319;567531;-69
2023/12/23 10:01:30;;;;;;;17.00;6.00;;;;;;;6.06;67.40;97605.47;656064;1286;138569;-66
2023/12/23 10:16:33;;;;;;;18.00;7.70;;;;;;;5.84;67.60;97606.98;655595;1274;138166;-66
2023/12/23 10:31:41;;;;;;;19.60;7.10;;;;;;;6.38;67.47;97612.27;661525;1274;138446;-68
2023/12/23 10:46:46;;;;;;;8.70;3.00;;;;;;;6.11;66.57;97610.95;661398;1269;138981;-68
2023/12/23 11:01:49;;;;;;;21.60;8.30;;;;;;;6.17;66.85;97602.70;673743;1270;138235;-68
2023/12/23 11:16:55;;;;;;;32.20;13.20;;;;;;;6.77;65.79;97601.98;655899;1275;138803;-67
2023/12/23 11:32:13;;;;;;;19.10;9.00;;;;;;;6.54;65.24;97615.41;653951;1287;139366;-68
2023/12/23 11:47:17;;;;;;;16.90;9.20;;;;;;;6.94;64.72;97633.95;652463;1271;138425;-67
2023/12/23 12:02:22;;;;;;;10.80;6.90;;;;;;;6.89;64.30;97650.52;667541;1272;138774;-66
2023/12/23 12:17:26;;;;;;;17.20;6.40;;;;;;;6.87;62.54;97656.76;651741;1275;138313;-66
2023/12/23 12:32:30;;;;;;;12.10;3.50;;;;;;;4.18;68.18;97666.20;661941;1275;139358;-65
2023/12/23 12:47:36;;;;;;;21.50;5.50;;;;;;;4.00;68.89;97674.30;666742;1272;138504;-67
2023/12/23 13:02:39;;;;;;;15.90;5.60;;;;;;;3.92;69.49;97678.85;671336;1272;139866;-64
2023/12/23 13:17:43;;;;;;;13.00;5.10;;;;;;;4.07;69.61;97699.66;659802;1283;138710;-66
2023/12/23 13:32:46;;;;;;;22.20;8.60;;;;;;;3.95;69.13;97725.63;661187;1273;139434;-65
2023/12/23 13:47:48;;;;;;;16.40;6.00;;;;;;;3.99;69.56;97748.21;674876;1275;138769;-66
2023/12/23 14:02:54;;;;;;;18.80;7.90;;;;;;;4.00;69.29;97776.25;675485;1275;139729;-66
2023/12/23 14:17:58;;;;;;;15.10;5.20;;;;;;;4.03;68.08;97809.61;660146;1274;138685;-67
2023/12/23 14:33:00;;;;;;;26.90;13.10;;;;;;;3.94;67.63;97822.19;654814;1277;140478;-66
2023/12/23 14:48:04;;;;;;;48.60;25.20;;;;;;;3.76;68.12;97845.59;660704;1272;140024;-67
2023/12/23 15:03:06;;;;;;;51.90;34.20;;;;;;;3.76;67.78;97870.63;654698;1269;140112;-66
2023/12/23 15:18:16;;;;;;;21.70;10.70;;;;;;;3.68;67.19;97890.17;661552;1272;138992;-63
2023/12/23 15:33:19;;;;;;;120.90;44.20;;;;;;;3.71;66.73;97909.93;660970;1272;140560;-64
2023/12/23 15:48:23;;;;;;;35.60;14.30;;;;;;;3.30;67.30;97934.00;669949;1270;139493;-65
2023/12/23 16:03:26;;;;;;;85.90;27.30;;;;;;;2.93;67.82;97961.88;678053;1271;139810;-65
2023/12/23 16:18:28;;;;;;;61.90;23.80;;;;;;;2.70;68.19;97992.23;678447;1272;138624;-66
2023/12/23 16:33:34;;;;;;;63.30;17.50;;;;;;;2.55;68.66;98014.89;662897;1272;140144;-64
2023/12/23 16:48:39;;;;;;;32.90;12.60;;;;;;;2.40;69.16;98048.46;664442;1268;139630;-64
2023/12/23 17:03:44;;;;;;;41.20;15.40;;;;;;;2.28;69.42;98071.77;665343;1266;139076;-63
2023/12/23 17:18:49;;;;;;;48.70;14.30;;;;;;;2.13;69.91;98079.14;662662;1268;139002;-65
2023/12/23 17:33:52;;;;;;;46.50;14.60;;;;;;;2.02;70.64;98092.01;666741;1268;139718;-64
2023/12/23 17:48:56;;;;;;;49.90;16.50;;;;;;;1.87;71.19;98112.92;671039;1268;139789;-65
2023/12/23 18:03:59;;;;;;;53.90;16.60;;;;;;;1.78;71.43;98136.09;666684;1268;139058;-66
2023/12/23 18:19:03;;;;;;;30.10;8.50;;;;;;;1.80;72.00;98151.95;660501;1268;139320;-67
2023/12/23 18:34:06;;;;;;;15.20;5.70;;;;;;;1.77;72.44;98164.33;660328;1268;139499;-65
2023/12/23 18:49:09;;;;;;;33.00;14.50;;;;;;;1.81;72.79;98177.39;663158;1268;138910;-67
2023/12/23 19:04:19;;;;;;;39.00;14.00;;;;;;;1.83;73.08;98194.30;664872;1268;140092;-65
2023/12/23 19:19:21;;;;;;;50.20;16.70;;;;;;;1.76;74.13;98211.73;655045;1268;139126;-64
2023/12/23 19:34:23;;;;;;;18.30;6.00;;;;;;;1.74;75.53;98233.52;655951;1268;140603;-67
2023/12/23 19:49:26;;;;;;;18.20;6.90;;;;;;;1.73;76.33;98251.35;656580;1268;139756;-66
2023/12/23 20:04:29;;;;;;;15.60;5.70;;;;;;;1.70;77.83;98271.42;667144;1268;140267;-67
2023/12/23 20:19:32;;;;;;;33.00;12.50;;;;;;;1.68;78.86;98275.35;663977;1268;139981;-67
2023/12/23 20:34:34;;;;;;;21.00;7.70;;;;;;;1.74;79.41;98284.66;671161;1268;139283;-66
2023/12/23 20:49:40;;;;;;;32.50;14.10;;;;;;;1.71;80.16;98301.80;677515;1268;138951;-67
2023/12/23 21:15:11;;;;;;;27.80;8.70;;;;;;;1.60;81.60;98345.61;659692;1308;545698;-79
2023/12/23 21:30:15;;;;;;;34.90;15.80;;;;;;;1.60;83.26;98361.67;674927;1271;139128;-79
2023/12/23 21:45:19;;;;;;;21.60;7.80;;;;;;;1.71;82.79;98388.19;676491;1272;141137;-79
2023/12/23 22:00:22;;;;;;;10.90;5.80;;;;;;;1.78;83.93;98394.83;675218;1273;138723;-79
2023/12/23 22:15:26;;;;;;;16.10;7.50;;;;;;;1.98;85.37;98399.59;676700;1271;139785;-80
2023/12/23 22:30:30;;;;;;;13.00;5.30;;;;;;;2.22;85.12;98420.02;677122;1275;138459;-79
2023/12/23 22:45:33;;;;;;;12.40;5.30;;;;;;;2.20;84.99;98432.95;675152;1286;139202;-79
2023/12/23 23:00:39;;;;;;;6.80;3.40;;;;;;;2.36;84.52;98458.19;676092;1275;138836;-79
2023/12/23 23:15:42;;;;;;;6.30;3.70;;;;;;;2.44;84.28;98472.58;674106;1272;139480;-80
2023/12/23 23:30:46;;;;;;;4.90;2.60;;;;;;;2.28;83.57;98494.25;675940;1274;139463;-79
2023/12/23 23:45:51;;;;;;;10.00;3.00;;;;;;;2.07;83.25;98515.64;674664;1272;139254;-79
